Time;durP1;ratioP1;P1;durP2;ratioP2;P2;SDS_P1;SDS_P2;PMS_P1;PMS_P2;Temp;Humidity;BMP_temperature;BMP_pressure;BME280_temperature;BME280_humidity;BME280_pressure;Samples;Min_cycle;Max_cycle;Signal;HPM_P1;HPM_P2
2021/03/15 00:00:10;;;;;;;7.53;2.90;;;;;;;2.14;100.00;99984.13;5013058;28;20076;-71
2021/03/15 00:02:37;;;;;;;6.07;2.57;;;;;;;2.16;100.00;99995.41;5014161;28;20040;-69
2021/03/15 00:05:05;;;;;;;3.93;2.43;;;;;;;2.24;100.00;99985.00;5021975;28;20045;-71
2021/03/15 00:07:31;;;;;;;4.23;3.07;;;;;;;2.20;100.00;99991.97;5028406;28;20399;-70
2021/03/15 00:09:57;;;;;;;5.00;3.17;;;;;;;2.20;100.00;99991.09;5029801;28;20729;-71
2021/03/15 00:12:24;;;;;;;5.50;2.83;;;;;;;2.24;100.00;99985.88;4993314;28;20040;-70
2021/03/15 00:14:51;;;;;;;5.07;2.93;;;;;;;2.28;100.00;99985.91;5008019;28;20058;-71
2021/03/15 00:17:17;;;;;;;4.30;2.70;;;;;;;2.26;100.00;99972.84;5013531;28;20038;-71
2021/03/15 00:19:44;;;;;;;6.57;3.37;;;;;;;2.20;100.00;99971.09;4993514;28;20469;-71
2021/03/15 00:22:10;;;;;;;5.80;2.93;;;;;;;2.19;100.00;99974.59;4995649;28;20099;-71
2021/03/15 00:24:36;;;;;;;4.70;2.87;;;;;;;2.29;100.00;99980.69;5029988;28;20513;-69
2021/03/15 00:27:03;;;;;;;4.07;2.57;;;;;;;2.15;100.00;99972.81;5013842;28;20442;-70
2021/03/15 00:29:29;;;;;;;4.73;3.20;;;;;;;2.12;100.00;99971.97;5024336;28;20124;-70
2021/03/15 00:31:55;;;;;;;4.80;2.70;;;;;;;2.10;100.00;99973.66;5031915;28;20429;-70
2021/03/15 00:34:21;;;;;;;7.17;3.57;;;;;;;2.08;100.00;99983.22;5014010;28;20103;-70
2021/03/15 00:36:47;;;;;;;4.53;2.93;;;;;;;2.12;100.00;99978.03;5027149;28;20741;-69
2021/03/15 00:39:14;;;;;;;4.97;2.73;;;;;;;2.15;100.00;99983.25;5013580;28;20045;-70
2021/03/15 00:41:40;;;;;;;6.83;3.20;;;;;;;2.09;100.00;99979.75;5057738;28;20094;-70
2021/03/15 00:44:08;;;;;;;6.73;3.90;;;;;;;2.06;100.00;99978.00;5018421;28;20119;-70
2021/03/15 00:46:35;;;;;;;5.90;3.10;;;;;;;2.05;100.00;99978.00;5030318;28;20044;-68
2021/03/15 00:49:01;;;;;;;6.00;2.90;;;;;;;2.07;100.00;99978.88;5021232;28;20036;-68
2021/03/15 00:51:27;;;;;;;5.00;2.83;;;;;;;2.06;100.00;99979.75;5045761;28;20472;-67
2021/03/15 00:53:54;;;;;;;7.73;2.93;;;;;;;2.06;100.00;99975.41;5039936;28;20041;-68
2021/03/15 00:56:20;;;;;;;5.13;2.60;;;;;;;2.08;100.00;99978.88;5012177;28;20095;-68
2021/03/15 00:58:46;;;;;;;4.87;2.90;;;;;;;2.02;100.00;99976.28;5052588;28;20109;-68
2021/03/15 01:01:19;;;;;;;5.10;2.60;;;;;;;2.03;100.00;99978.00;5047894;28;20037;-68
2021/03/15 01:03:46;;;;;;;5.50;3.13;;;;;;;2.12;100.00;99972.81;5040308;28;20128;-68
2021/03/15 01:06:14;;;;;;;3.83;2.50;;;;;;;2.11;100.00;99972.81;5052573;28;20041;-69
2021/03/15 01:08:41;;;;;;;5.37;3.37;;;;;;;2.09;100.00;99975.41;5060088;28;20044;-68
2021/03/15 01:11:07;;;;;;;4.57;3.07;;;;;;;2.12;100.00;99966.75;5013916;28;20045;-68
2021/03/15 01:13:34;;;;;;;4.53;2.77;;;;;;;2.15;100.00;99967.59;5015301;28;20489;-68
2021/03/15 01:16:00;;;;;;;4.57;3.27;;;;;;;2.12;100.00;99961.53;5029031;28;20122;-68
2021/03/15 01:18:27;;;;;;;6.77;2.90;;;;;;;2.12;100.00;99957.19;5050661;28;20544;-68
2021/03/15 01:20:53;;;;;;;5.37;2.93;;;;;;;2.06;100.00;99957.16;5048215;28;20251;-68
2021/03/15 01:23:20;;;;;;;4.90;3.30;;;;;;;2.09;100.00;99958.91;5021904;28;20165;-68
2021/03/15 01:25:47;;;;;;;7.83;4.10;;;;;;;2.08;100.00;99959.78;5048278;28;20037;-67
2021/03/15 01:28:15;;;;;;;4.30;2.70;;;;;;;2.09;100.00;99958.91;5052094;28;20040;-67
2021/03/15 01:30:42;;;;;;;6.73;2.90;;;;;;;2.04;100.00;99955.44;5029335;28;20032;-67
2021/03/15 01:33:09;;;;;;;7.10;2.87;;;;;;;2.06;100.00;99951.97;5021353;28;20072;-68
2021/03/15 01:35:36;;;;;;;5.60;3.03;;;;;;;2.02;100.00;99938.91;5045479;28;20132;-67
2021/03/15 01:38:05;;;;;;;5.73;3.10;;;;;;;1.98;100.00;99945.84;5002605;28;20056;-67
2021/03/15 01:40:32;;;;;;;4.40;3.23;;;;;;;1.96;100.00;99939.78;5028805;28;20099;-67
2021/03/15 01:42:58;;;;;;;7.20;3.30;;;;;;;1.96;100.00;99943.25;5008934;28;20068;-67
2021/03/15 01:45:25;;;;;;;6.97;3.30;;;;;;;1.97;100.00;99934.56;5022956;28;20049;-68
2021/03/15 01:47:52;;;;;;;8.33;3.23;;;;;;;1.99;100.00;99937.16;5028347;28;20056;-67
2021/03/15 01:50:19;;;;;;;8.30;3.70;;;;;;;2.07;100.00;99937.19;5027077;28;20498;-68
2021/03/15 01:52:46;;;;;;;8.90;3.53;;;;;;;2.10;100.00;99945.91;5009774;28;20108;-67
2021/03/15 01:55:13;;;;;;;5.97;3.33;;;;;;;2.12;100.00;99938.09;5049460;28;20425;-68
2021/03/15 01:57:40;;;;;;;5.73;3.27;;;;;;;2.13;100.00;99932.88;5041596;28;20029;-67
2021/03/15 02:00:09;;;;;;;5.23;2.73;;;;;;;2.18;100.00;99927.66;5022424;28;20049;-68
2021/03/15 02:02:36;;;;;;;7.23;3.30;;;;;;;2.17;100.00;99924.19;5029269;28;20516;-67
2021/03/15 02:05:04;;;;;;;5.67;2.80;;;;;;;2.18;100.00;99923.31;5026630;28;20267;-67
2021/03/15 02:07:30;;;;;;;5.90;3.00;;;;;;;2.25;100.00;99922.44;5011002;28;20037;-68
2021/03/15 02:09:58;;;;;;;5.87;3.00;;;;;;;2.28;100.00;99924.22;5011851;28;20073;-67
2021/03/15 02:12:34;;;;;;;7.27;3.33;;;;;;;2.24;100.00;99919.84;5009630;28;20048;-68
2021/03/15 02:15:33;;;;;;;7.73;4.23;;;;;;;2.25;100.00;99919.84;4991433;28;20036;-68
2021/03/15 02:18:15;;;;;;;7.17;3.20;;;;;;;2.33;100.00;99912.03;5030542;28;20049;-68
2021/03/15 02:21:19;;;;;;;5.97;3.23;;;;;;;2.29;100.00;99912.91;5017943;28;20128;-68
2021/03/15 02:24:20;;;;;;;5.40;3.13;;;;;;;2.29;100.00;99909.44;5042827;28;20394;-68
2021/03/15 02:27:19;;;;;;;8.73;3.70;;;;;;;2.33;100.00;99912.03;5043087;28;20045;-68
2021/03/15 02:30:13;;;;;;;7.07;3.30;;;;;;;2.35;100.00;99907.69;5033823;28;20041;-68
2021/03/15 02:33:14;;;;;;;10.50;3.67;;;;;;;2.38;100.00;99909.44;5028101;28;20049;-68
2021/03/15 02:35:40;;;;;;;6.50;2.90;;;;;;;2.36;100.00;99908.59;5021266;28;20357;-67
2021/03/15 02:38:16;;;;;;;9.13;3.37;;;;;;;2.41;100.00;99906.84;5021059;28;513179;-68
2021/03/15 02:40:48;;;;;;;6.57;4.07;;;;;;;2.36;100.00;99904.25;5046088;28;20113;-67
2021/03/15 02:43:26;;;;;;;8.30;3.50;;;;;;;2.38;100.00;99904.25;5017247;28;20107;-68
2021/03/15 02:45:57;;;;;;;6.60;3.20;;;;;;;2.38;100.00;99907.72;5020215;28;20453;-68
2021/03/15 02:48:25;;;;;;;7.17;3.53;;;;;;;2.38;100.00;99909.44;5021452;28;20052;-68
2021/03/15 02:50:52;;;;;;;5.90;3.20;;;;;;;2.39;100.00;99905.97;5009789;28;20052;-68
2021/03/15 02:53:18;;;;;;;7.60;4.30;;;;;;;2.36;100.00;99904.25;5011824;28;20045;-68
2021/03/15 02:55:52;;;;;;;7.90;3.70;;;;;;;2.40;100.00;99902.50;5026934;28;20491;-67
2021/03/15 02:58:19;;;;;;;4.35;3.00;;;;;;;2.40;100.00;99898.16;5038380;28;20053;-67
2021/03/15 03:00:47;;;;;;;7.10;3.43;;;;;;;2.39;100.00;99900.75;5044931;28;20605;-68
2021/03/15 03:03:18;;;;;;;6.57;3.30;;;;;;;2.41;100.00;99899.00;5037508;28;20041;-68
2021/03/15 03:05:45;;;;;;;8.63;3.50;;;;;;;2.41;100.00;99894.66;5009687;28;20033;-68
2021/03/15 03:08:16;;;;;;;6.80;3.67;;;;;;;2.37;100.00;99892.94;5048224;28;20041;-68
2021/03/15 03:10:43;;;;;;;5.70;3.40;;;;;;;2.39;100.00;99898.16;5027777;28;20059;-67
2021/03/15 03:13:10;;;;;;;6.97;3.30;;;;;;;2.37;100.00;99892.94;5009259;28;20064;-67
2021/03/15 03:15:37;;;;;;;9.57;3.03;;;;;;;2.40;100.00;99892.94;5030297;28;20107;-68
2021/03/15 03:18:04;;;;;;;6.63;3.17;;;;;;;2.38;100.00;99899.03;5040446;28;20041;-67
2021/03/15 03:20:31;;;;;;;4.03;2.57;;;;;;;2.34;100.00;99898.13;5029984;28;20041;-68
2021/03/15 03:22:59;;;;;;;9.10;3.00;;;;;;;2.32;100.00;99899.88;5015255;28;20403;-68
2021/03/15 03:25:26;;;;;;;7.57;3.40;;;;;;;2.34;100.00;99897.25;5003300;28;20051;-68
2021/03/15 03:27:55;;;;;;;7.67;3.53;;;;;;;2.30;100.00;99895.53;5007219;28;20044;-67
2021/03/15 03:30:27;;;;;;;7.27;3.00;;;;;;;2.32;100.00;99899.00;5044245;28;20041;-68
2021/03/15 03:32:54;;;;;;;8.10;3.00;;;;;;;2.30;100.00;99893.81;5017741;28;20033;-67
2021/03/15 03:35:21;;;;;;;6.00;2.50;;;;;;;2.30;100.00;99891.19;5009924;28;20045;-68
2021/03/15 03:37:47;;;;;;;6.60;3.20;;;;;;;2.32;100.00;99896.41;5005187;28;20066;-67
2021/03/15 03:40:14;;;;;;;6.07;3.27;;;;;;;2.29;100.00;99894.69;4993394;28;20526;-67
2021/03/15 03:42:41;;;;;;;10.53;3.33;;;;;;;2.32;100.00;99899.00;4993638;28;20569;-68
2021/03/15 03:45:08;;;;;;;5.80;3.23;;;;;;;2.33;100.00;99901.63;5023872;28;20688;-68
2021/03/15 03:47:34;;;;;;;9.57;5.10;;;;;;;2.33;100.00;99900.75;5022409;28;20037;-67
2021/03/15 03:50:01;;;;;;;13.90;7.17;;;;;;;2.34;100.00;99900.75;4986183;28;20095;-67
2021/03/15 03:52:29;;;;;;;18.43;8.97;;;;;;;2.34;100.00;99899.88;5010658;28;20030;-67
2021/03/15 16:16:31;;;;;;;5.10;2.93;;;;;;;3.65;100.00;99797.75;5029886;23;20539;-73
2021/03/15 16:19:09;;;;;;;3.53;2.30;;;;;;;3.67;100.00;99796.00;5006965;28;20049;-72
2021/03/15 16:21:35;;;;;;;7.53;4.23;;;;;;;3.62;100.00;99800.41;5022406;28;20687;-69
2021/03/15 16:24:04;;;;;;;7.47;4.37;;;;;;;3.62;100.00;99787.34;5012677;28;20052;-71
2021/03/15 16:26:30;;;;;;;4.70;3.73;;;;;;;3.60;100.00;99783.84;5005675;28;20052;-70
2021/03/15 16:28:57;;;;;;;5.27;4.00;;;;;;;3.67;100.00;99788.16;5014701;28;20037;-69
2021/03/15 16:31:24;;;;;;;5.83;3.90;;;;;;;3.70;100.00;99790.75;5009976;28;20055;-70
2021/03/15 16:33:55;;;;;;;5.37;4.67;;;;;;;3.80;100.00;99784.59;5023133;28;20725;-70
2021/03/15 16:36:26;;;;;;;4.67;2.80;;;;;;;3.84;100.00;99790.66;5002816;28;20055;-70
2021/03/15 16:38:54;;;;;;;4.40;3.30;;;;;;;3.86;100.00;99791.50;5017996;28;20044;-69
2021/03/15 16:41:21;;;;;;;4.13;3.10;;;;;;;3.87;100.00;99795.88;5018161;28;20196;-69
2021/03/15 16:43:53;;;;;;;4.67;3.20;;;;;;;3.81;100.00;99793.28;5000777;28;20051;-70
2021/03/15 16:46:20;;;;;;;4.00;2.87;;;;;;;3.76;100.00;99801.16;5007763;28;20565;-70
2021/03/15 16:48:51;;;;;;;6.27;3.10;;;;;;;3.73;100.00;99795.97;4993217;28;20727;-70
2021/03/15 16:51:27;;;;;;;4.77;3.10;;;;;;;3.75;100.00;99799.41;5002330;28;20076;-70
2021/03/15 16:53:57;;;;;;;4.37;2.73;;;;;;;3.70;100.00;99802.94;5023898;28;20103;-69
2021/03/15 16:56:24;;;;;;;4.37;2.50;;;;;;;3.64;100.00;99801.25;5010210;28;20032;-71
2021/03/15 16:58:54;;;;;;;3.60;2.20;;;;;;;3.65;100.00;99802.97;5007776;28;20065;-70
2021/03/15 17:01:21;;;;;;;3.00;2.40;;;;;;;3.56;100.00;99805.66;4995447;28;20132;-69
2021/03/15 17:03:48;;;;;;;3.20;2.13;;;;;;;3.46;100.00;99804.84;4994570;28;20053;-70
2021/03/15 17:06:15;;;;;;;4.07;2.30;;;;;;;3.35;100.00;99823.16;5027344;28;20069;-70
2021/03/15 17:08:45;;;;;;;3.27;1.90;;;;;;;3.23;100.00;99815.38;4988538;28;20045;-72
2021/03/15 17:11:15;;;;;;;3.23;2.20;;;;;;;3.12;100.00;99822.41;5002531;28;20045;-72
2021/03/15 17:13:43;;;;;;;2.80;2.13;;;;;;;3.03;100.00;99818.06;5007241;28;20044;-71
2021/03/15 17:16:11;;;;;;;2.60;2.10;;;;;;;2.94;100.00;99825.03;5117715;23;20037;-72
2021/03/15 17:18:38;;;;;;;3.40;2.30;;;;;;;2.90;100.00;99828.53;5477653;23;20672;-70
2021/03/15 17:21:04;;;;;;;2.33;1.63;;;;;;;2.88;100.00;99830.31;5010180;28;20111;-74
2021/03/15 17:23:31;;;;;;;2.87;2.10;;;;;;;2.90;100.00;99839.84;5037510;28;20037;-71
2021/03/15 17:25:57;;;;;;;2.57;1.93;;;;;;;2.90;100.00;99847.69;5021540;28;22658;-72
2021/03/15 17:28:25;;;;;;;2.63;2.00;;;;;;;2.92;100.00;99848.53;5047338;28;20107;-74
2021/03/15 17:30:51;;;;;;;2.50;1.90;;;;;;;2.98;100.00;99855.47;5025429;28;20045;-69
2021/03/15 17:33:18;;;;;;;3.10;2.00;;;;;;;2.99;100.00;99860.69;5026405;28;20033;-70
2021/03/15 17:35:44;;;;;;;3.50;2.20;;;;;;;2.97;100.00;99853.75;5034982;28;20045;-70
2021/03/15 17:38:11;;;;;;;3.57;2.37;;;;;;;2.94;100.00;99854.59;5040230;28;20747;-70
2021/03/15 17:40:37;;;;;;;4.20;2.50;;;;;;;2.92;100.00;99865.94;5018977;28;20045;-70
2021/03/15 17:43:03;;;;;;;3.87;2.33;;;;;;;2.90;100.00;99868.53;5020346;28;20029;-70
2021/03/15 17:45:29;;;;;;;3.33;2.20;;;;;;;2.90;100.00;99862.47;5025362;28;20052;-69
2021/03/15 17:47:56;;;;;;;5.37;2.57;;;;;;;2.89;100.00;99871.16;5037848;28;20032;-70
2021/03/15 17:50:22;;;;;;;4.10;3.27;;;;;;;2.88;100.00;99867.69;5021220;28;20033;-69
2021/03/15 17:52:49;;;;;;;3.50;2.70;;;;;;;2.88;100.00;99869.44;5009207;28;20521;-70
2021/03/15 17:55:15;;;;;;;2.93;2.30;;;;;;;2.89;100.00;99876.38;5019513;28;20044;-69
2021/03/15 17:57:42;;;;;;;3.03;1.97;;;;;;;2.88;100.00;99880.72;5021221;28;20072;-70
2021/03/15 18:00:11;;;;;;;3.33;2.80;;;;;;;2.91;100.00;99885.06;5036458;28;20133;-70
2021/03/15 18:02:43;;;;;;;6.80;3.40;;;;;;;2.93;100.00;99876.34;5017663;28;20037;-69
2021/03/15 18:05:10;;;;;;;5.53;2.67;;;;;;;2.96;100.00;99884.19;5019995;28;20045;-70
2021/03/15 18:07:37;;;;;;;3.30;2.50;;;;;;;2.98;100.00;99886.78;5006906;28;20053;-70
2021/03/15 18:10:04;;;;;;;4.53;2.50;;;;;;;3.00;100.00;99880.69;5036553;28;20300;-70
2021/03/15 18:12:33;;;;;;;5.40;2.50;;;;;;;3.00;100.00;99885.03;4990505;28;20055;-69
2021/03/15 18:14:59;;;;;;;3.57;2.53;;;;;;;3.01;100.00;99894.59;5003541;28;20586;-69
2021/03/15 18:17:25;;;;;;;4.57;2.73;;;;;;;3.01;100.00;99892.00;5020332;28;20041;-68
2021/03/15 18:20:03;;;;;;;3.70;2.87;;;;;;;3.03;100.00;99891.16;5031714;28;20041;-69
2021/03/15 18:22:30;;;;;;;6.53;3.93;;;;;;;3.03;100.00;99896.38;5020549;28;20115;-69
2021/03/15 18:24:56;;;;;;;4.87;2.90;;;;;;;3.04;100.00;99898.09;5041263;28;20128;-69
2021/03/15 18:27:22;;;;;;;4.70;2.60;;;;;;;3.06;100.00;99898.09;5042631;28;20052;-69
2021/03/15 18:29:48;;;;;;;5.53;3.60;;;;;;;3.09;100.00;99898.94;5007396;28;20111;-69
2021/03/15 18:32:15;;;;;;;6.30;4.07;;;;;;;3.08;100.00;99899.81;5011204;28;20049;-70
2021/03/15 18:34:42;;;;;;;4.87;3.80;;;;;;;3.09;100.00;99898.06;5027833;28;20094;-70
2021/03/15 18:37:08;;;;;;;4.23;3.37;;;;;;;3.11;100.00;99904.16;5023041;28;20043;-69
2021/03/15 18:39:34;;;;;;;6.73;3.03;;;;;;;3.12;100.00;99911.13;5008702;28;20045;-70
2021/03/15 18:42:01;;;;;;;3.93;2.70;;;;;;;3.15;100.00;99905.03;5021021;28;20500;-69
2021/03/15 18:44:27;;;;;;;4.33;3.30;;;;;;;3.15;100.00;99900.66;5006987;28;20120;-69
2021/03/15 18:46:53;;;;;;;4.23;3.00;;;;;;;3.16;100.00;99906.75;5004675;28;20067;-69
2021/03/15 18:49:20;;;;;;;6.67;3.60;;;;;;;3.16;100.00;99905.00;5000571;28;20155;-69
2021/03/15 18:51:46;;;;;;;9.50;4.87;;;;;;;3.19;100.00;99906.75;5039562;28;20414;-69
2021/03/15 18:54:14;;;;;;;5.67;3.93;;;;;;;3.19;100.00;99911.97;5008087;28;20041;-70
2021/03/15 18:56:40;;;;;;;6.83;3.63;;;;;;;3.18;100.00;99921.53;5005900;28;20055;-69
2021/03/15 18:59:08;;;;;;;6.17;3.20;;;;;;;3.19;100.00;99930.22;5017799;28;20044;-69
2021/03/15 19:01:34;;;;;;;3.40;2.50;;;;;;;3.28;100.00;99925.88;5036093;28;20044;-69
2021/03/15 19:04:00;;;;;;;3.87;2.70;;;;;;;3.24;100.00;99926.75;5038384;28;20041;-72
2021/03/15 19:06:26;;;;;;;4.77;2.63;;;;;;;3.27;100.00;99926.72;5036614;28;20045;-72
2021/03/15 19:08:53;;;;;;;4.87;2.90;;;;;;;3.28;100.00;99930.19;5002682;28;20045;-73
2021/03/15 19:11:19;;;;;;;6.37;2.60;;;;;;;3.26;100.00;99945.88;5019385;28;20040;-72
2021/03/15 19:13:45;;;;;;;4.17;2.60;;;;;;;3.26;100.00;99939.78;5038951;28;20048;-73
2021/03/15 19:16:11;;;;;;;4.90;2.20;;;;;;;3.25;100.00;99935.44;5019239;28;20095;-73
2021/03/15 19:18:37;;;;;;;6.17;2.03;;;;;;;3.28;100.00;99946.75;5038978;28;20033;-72
2021/03/15 19:21:23;;;;;;;5.80;3.47;;;;;;;3.31;100.00;99943.25;5011166;28;20785;-73
2021/03/15 19:23:49;;;;;;;5.70;2.67;;;;;;;3.28;100.00;99949.38;5038442;28;20068;-73
2021/03/15 19:26:15;;;;;;;4.33;2.73;;;;;;;3.28;100.00;99948.47;5020816;28;20781;-72
2021/03/15 19:28:41;;;;;;;4.57;2.57;;;;;;;3.27;100.00;99957.19;5038039;28;20125;-73
2021/03/15 19:31:07;;;;;;;5.70;2.67;;;;;;;3.26;100.00;99958.06;5030442;28;20041;-73
2021/03/15 19:33:36;;;;;;;3.87;2.73;;;;;;;3.27;100.00;99965.00;5022885;28;20037;-73
2021/03/15 19:36:03;;;;;;;4.27;2.27;;;;;;;3.27;100.00;99963.28;5016420;28;20513;-73
2021/03/15 19:38:30;;;;;;;4.20;2.50;;;;;;;3.30;100.00;99967.63;5005072;28;20053;-72
2021/03/15 19:40:56;;;;;;;6.13;2.80;;;;;;;3.29;100.00;99976.34;5040166;28;20041;-73
2021/03/15 19:43:22;;;;;;;7.63;5.40;;;;;;;3.28;100.00;99980.69;5040253;28;20047;-73
2021/03/15 19:45:49;;;;;;;5.40;3.33;;;;;;;3.29;100.00;99985.03;5017782;28;20132;-73
2021/03/15 19:48:15;;;;;;;6.53;4.10;;;;;;;3.27;100.00;99981.53;5005692;28;20126;-72
2021/03/15 19:50:42;;;;;;;5.20;2.50;;;;;;;3.26;100.00;99987.66;5008600;28;20041;-73
2021/03/15 19:53:08;;;;;;;5.07;2.50;;;;;;;3.25;100.00;99987.66;5015671;28;20037;-72
2021/03/15 19:55:36;;;;;;;4.07;2.80;;;;;;;3.23;100.00;100000.72;5018945;28;20094;-73
2021/03/15 19:58:02;;;;;;;2.80;2.27;;;;;;;3.21;100.00;99992.03;5009534;28;20041;-72
2021/03/15 20:00:29;;;;;;;3.37;1.80;;;;;;;3.21;100.00;99998.97;5008415;28;20801;-73
2021/03/15 20:02:55;;;;;;;3.23;2.50;;;;;;;3.23;100.00;100003.31;5005394;28;20417;-73
2021/03/15 20:05:22;;;;;;;3.97;2.20;;;;;;;3.29;100.00;99998.09;5043201;28;20047;-73
2021/03/15 20:07:48;;;;;;;3.57;2.10;;;;;;;3.23;100.00;99999.84;5023214;28;20037;-73
2021/03/15 20:10:14;;;;;;;4.37;2.57;;;;;;;3.25;100.00;100009.41;5040088;28;20556;-72
2021/03/15 20:12:41;;;;;;;4.57;2.90;;;;;;;3.23;100.00;100008.53;5002077;28;20037;-73
2021/03/15 20:15:12;;;;;;;3.93;2.63;;;;;;;3.23;100.00;100013.75;5017537;28;20051;-73
2021/03/15 20:17:39;;;;;;;5.47;3.00;;;;;;;3.26;100.00;100018.09;5004339;28;20095;-73
2021/03/15 20:20:07;;;;;;;5.27;2.73;;;;;;;3.25;100.00;100027.69;5021227;28;20091;-72
2021/03/15 20:22:34;;;;;;;4.30;2.77;;;;;;;3.27;100.00;100018.09;5016378;28;20645;-72
2021/03/15 20:25:00;;;;;;;3.90;2.70;;;;;;;3.27;100.00;100020.69;4996925;28;20053;-73
2021/03/15 20:27:26;;;;;;;4.20;2.77;;;;;;;3.29;100.00;100021.59;5014689;28;20038;-73
2021/03/15 20:29:53;;;;;;;3.90;2.73;;;;;;;3.30;100.00;100025.94;5033970;28;20449;-73
2021/03/15 20:32:19;;;;;;;5.53;2.73;;;;;;;3.27;100.00;100033.75;5000188;28;20073;-73
2021/03/15 20:34:45;;;;;;;5.10;2.53;;;;;;;3.28;100.00;100032.00;5007947;28;20048;-73
2021/03/15 20:37:12;;;;;;;4.53;2.70;;;;;;;3.27;100.00;100035.50;5004520;28;20045;-73
2021/03/15 20:39:38;;;;;;;4.20;2.40;;;;;;;3.26;100.00;100034.63;5017179;28;20048;-73
2021/03/15 20:42:05;;;;;;;7.13;3.27;;;;;;;3.25;100.00;100045.09;5017891;28;20045;-73
2021/03/15 20:44:31;;;;;;;4.93;2.90;;;;;;;3.26;100.00;100044.22;5001484;28;20561;-73
2021/03/15 20:46:57;;;;;;;3.73;2.37;;;;;;;3.23;100.00;100049.44;5018213;28;20041;-73
2021/03/15 20:49:23;;;;;;;4.60;2.30;;;;;;;3.20;100.00;100049.44;5012493;28;20049;-72
2021/03/15 20:51:52;;;;;;;3.63;1.93;;;;;;;3.20;100.00;100054.69;4998538;28;20053;-73
2021/03/15 20:54:18;;;;;;;3.70;2.10;;;;;;;3.15;100.00;100056.41;5008373;28;20041;-72
2021/03/15 20:56:44;;;;;;;2.40;1.73;;;;;;;3.14;100.00;100057.28;5017822;28;20041;-73
2021/03/15 20:59:11;;;;;;;2.10;1.40;;;;;;;3.09;100.00;100060.75;5012819;28;20491;-73
2021/03/15 21:01:37;;;;;;;1.83;1.30;;;;;;;3.08;100.00;100064.22;5005151;28;20067;-73
2021/03/15 21:04:04;;;;;;;1.37;1.00;;;;;;;3.07;100.00;100069.44;5020470;28;20068;-72
2021/03/15 21:06:30;;;;;;;1.60;1.00;;;;;;;3.05;100.00;100064.22;5019394;28;20769;-72
2021/03/15 21:08:56;;;;;;;1.50;1.00;;;;;;;3.02;100.00;100066.81;5012945;28;20627;-73
2021/03/15 21:11:23;;;;;;;1.37;1.13;;;;;;;3.01;100.00;100070.31;4988028;28;20107;-72
2021/03/15 21:13:49;;;;;;;0.90;0.80;;;;;;;3.01;100.00;100085.97;5014645;28;20500;-73
2021/03/15 21:16:16;;;;;;;0.77;0.77;;;;;;;3.01;100.00;100090.31;5024833;28;20123;-72
2021/03/15 21:18:42;;;;;;;1.47;0.90;;;;;;;3.00;100.00;100094.66;5023422;28;20508;-72
2021/03/15 21:21:08;;;;;;;1.97;0.90;;;;;;;3.02;100.00;100089.44;5004920;28;20092;-72
2021/03/15 21:23:35;;;;;;;1.17;0.90;;;;;;;3.00;100.00;100093.78;5011817;28;20041;-72
2021/03/15 21:26:01;;;;;;;1.53;0.90;;;;;;;3.01;100.00;100100.75;5007825;28;20041;-72
2021/03/15 21:28:27;;;;;;;1.23;0.90;;;;;;;2.99;100.00;100092.91;5035755;28;20045;-72
2021/03/15 21:30:55;;;;;;;1.77;1.00;;;;;;;2.97;100.00;100096.41;5018440;28;20037;-72
2021/03/15 21:33:23;;;;;;;1.57;1.00;;;;;;;2.98;100.00;100096.41;5015721;28;20088;-70
2021/03/15 21:35:53;;;;;;;1.13;0.80;;;;;;;2.99;100.00;100099.88;5034625;28;20261;-70
2021/03/15 21:38:20;;;;;;;2.13;1.00;;;;;;;2.96;100.00;100100.75;5018120;28;20131;-71
2021/03/15 21:40:47;;;;;;;2.13;0.90;;;;;;;2.94;100.00;100099.88;5015311;28;20127;-71
2021/03/15 21:43:13;;;;;;;1.00;0.90;;;;;;;2.95;100.00;100105.97;5037767;28;20029;-69
2021/03/15 21:45:39;;;;;;;1.67;1.00;;;;;;;2.99;100.00;100111.19;5009224;28;20064;-70
2021/03/15 21:48:06;;;;;;;1.70;1.10;;;;;;;3.01;100.00;100117.28;4999439;28;20061;-70
2021/03/15 21:50:32;;;;;;;4.83;2.10;;;;;;;3.04;100.00;100109.47;5003883;28;20055;-71
2021/03/15 21:53:19;;;;;;;2.40;1.50;;;;;;;3.00;100.00;100112.06;5003776;28;20413;-70
2021/03/15 21:55:45;;;;;;;2.50;1.63;;;;;;;2.97;100.00;100112.94;4999218;28;20044;-71
2021/03/15 21:58:12;;;;;;;2.93;1.93;;;;;;;3.02;100.00;100121.63;5023192;28;20048;-70
2021/03/15 22:00:38;;;;;;;3.97;2.10;;;;;;;3.00;100.00;100123.38;5041345;28;20095;-72
2021/03/15 22:03:05;;;;;;;3.90;2.33;;;;;;;3.01;100.00;100121.63;5014030;28;20038;-72
2021/03/15 22:05:31;;;;;;;5.27;2.83;;;;;;;3.03;100.00;100132.97;5022987;28;20438;-71
2021/03/15 22:07:57;;;;;;;7.73;4.40;;;;;;;3.04;100.00;100129.47;5024140;28;20055;-70
2021/03/15 22:10:24;;;;;;;7.87;4.60;;;;;;;3.05;100.00;100132.09;5005715;28;20044;-71
2021/03/15 22:12:50;;;;;;;8.33;5.40;;;;;;;3.05;100.00;100133.81;5044541;28;20498;-72
2021/03/15 22:15:16;;;;;;;11.03;6.00;;;;;;;3.10;100.00;100129.47;5021627;28;20049;-71
2021/03/15 22:17:42;;;;;;;12.03;6.60;;;;;;;3.09;100.00;100132.94;5002537;28;20046;-71
2021/03/15 22:20:10;;;;;;;10.27;5.37;;;;;;;3.09;100.00;100132.94;5022025;28;20052;-71
2021/03/15 22:22:37;;;;;;;10.70;5.33;;;;;;;3.09;100.00;100146.00;5015186;28;20037;-71
2021/03/15 22:25:05;;;;;;;11.03;7.23;;;;;;;3.08;100.00;100142.50;5012984;28;20041;-71
2021/03/15 22:27:31;;;;;;;10.47;6.17;;;;;;;3.09;100.00;100146.88;5002455;28;20045;-71
2021/03/15 22:29:58;;;;;;;14.10;7.27;;;;;;;3.10;100.00;100139.91;5000487;28;20111;-70
2021/03/15 22:32:24;;;;;;;12.67;7.33;;;;;;;3.12;100.00;100143.41;5033927;28;20037;-70
2021/03/15 22:34:51;;;;;;;11.73;7.80;;;;;;;3.10;100.00;100146.00;5038088;28;20052;-71
2021/03/15 22:37:17;;;;;;;11.07;6.50;;;;;;;3.13;100.00;100152.09;5027430;28;20045;-71
2021/03/15 22:39:43;;;;;;;13.67;7.73;;;;;;;3.17;100.00;100148.63;5015192;28;20041;-71
2021/03/15 22:42:12;;;;;;;12.87;6.93;;;;;;;3.11;100.00;100159.91;5010160;28;20057;-71
2021/03/15 22:44:39;;;;;;;11.43;6.67;;;;;;;3.10;100.00;100156.44;5018610;28;20037;-70
2021/03/15 22:47:06;;;;;;;13.33;6.43;;;;;;;3.10;100.00;100163.38;5042979;28;20060;-70
2021/03/15 22:49:33;;;;;;;10.27;6.90;;;;;;;3.11;100.00;100170.34;5025853;28;20036;-70
2021/03/15 22:52:00;;;;;;;12.10;6.87;;;;;;;3.13;100.00;100166.03;5046845;28;20041;-71
2021/03/15 22:54:27;;;;;;;11.87;6.90;;;;;;;3.19;100.00;100170.38;5038967;28;20034;-70
2021/03/15 22:56:53;;;;;;;13.40;7.00;;;;;;;3.14;100.00;100172.13;5025386;28;20432;-71
2021/03/15 22:59:19;;;;;;;15.53;7.90;;;;;;;3.17;100.00;100174.72;5025778;28;20048;-71
2021/03/15 23:01:45;;;;;;;14.67;7.60;;;;;;;3.24;100.00;100176.47;5024742;28;20481;-71
2021/03/15 23:04:12;;;;;;;14.93;8.73;;;;;;;3.19;100.00;100186.03;5010510;28;20135;-71
2021/03/15 23:06:38;;;;;;;13.27;6.97;;;;;;;3.21;100.00;100179.97;5026679;28;20514;-71
2021/03/15 23:09:07;;;;;;;11.83;6.47;;;;;;;3.16;100.00;100181.69;4998359;28;20072;-70
2021/03/15 23:11:34;;;;;;;12.47;7.27;;;;;;;3.14;100.00;100193.88;5021737;28;20037;-71
2021/03/15 23:14:00;;;;;;;10.57;6.37;;;;;;;3.10;100.00;100187.75;5023221;28;20106;-71
2021/03/15 23:16:26;;;;;;;11.87;6.70;;;;;;;3.13;100.00;100193.88;5039078;28;20087;-72
2021/03/15 23:18:54;;;;;;;12.03;6.40;;;;;;;3.10;100.00;100200.81;5019470;28;20099;-70
2021/03/15 23:21:22;;;;;;;12.10;6.23;;;;;;;3.07;100.00;100205.16;5022713;28;20033;-71
2021/03/15 23:23:51;;;;;;;12.20;5.80;;;;;;;3.04;100.00;100210.38;5006459;28;20123;-72
2021/03/15 23:26:18;;;;;;;13.37;6.67;;;;;;;2.99;100.00;100215.56;5006642;28;20041;-71
2021/03/15 23:28:57;;;;;;;7.73;4.90;;;;;;;2.97;100.00;100214.69;5006777;28;20037;-71
2021/03/15 23:31:25;;;;;;;12.90;6.47;;;;;;;2.97;100.00;100224.25;5006641;28;20044;-71
2021/03/15 23:33:52;;;;;;;8.80;5.43;;;;;;;2.96;100.00;100227.75;5042107;28;20037;-70
2021/03/15 23:36:19;;;;;;;8.20;5.07;;;;;;;2.93;100.00;100222.50;5026962;28;20041;-71
2021/03/15 23:38:45;;;;;;;11.70;6.63;;;;;;;2.94;100.00;100229.47;5036056;28;20725;-71
2021/03/15 23:41:11;;;;;;;11.73;5.37;;;;;;;2.92;100.00;100225.97;5037067;28;20040;-70
2021/03/15 23:43:38;;;;;;;10.73;6.33;;;;;;;2.90;100.00;100238.16;5021401;28;20034;-71
2021/03/15 23:46:04;;;;;;;12.17;6.17;;;;;;;2.91;100.00;100232.06;5003096;28;20086;-71
2021/03/15 23:48:31;;;;;;;10.33;5.33;;;;;;;2.91;100.00;100239.91;5038916;28;20087;-72
2021/03/15 23:50:57;;;;;;;11.33;5.50;;;;;;;2.94;100.00;100242.50;5025729;28;20056;-71
2021/03/15 23:53:23;;;;;;;7.47;5.13;;;;;;;2.93;100.00;100253.81;5004153;28;20029;-70